sensor_id;sensor_type;location;lat;lon;timestamp;P1;durP1;ratioP1;P2;durP2;ratioP2
80211;SDS011;70434;37.956;23.722;2023-12-04T00:00:49;30.35;;;14.80;;
80211;SDS011;70434;37.956;23.722;2023-12-04T00:03:15;36.53;;;16.58;;
80211;SDS011;70434;37.956;23.722;2023-12-04T00:05:43;33.95;;;16.02;;
80211;SDS011;70434;37.956;23.722;2023-12-04T00:08:09;24.33;;;14.63;;
80211;SDS011;70434;37.956;23.722;2023-12-04T00:10:36;34.25;;;15.45;;
80211;SDS011;70434;37.956;23.722;2023-12-04T00:13:02;29.58;;;14.43;;
80211;SDS011;70434;37.956;23.722;2023-12-04T00:15:27;27.98;;;13.30;;
80211;SDS011;70434;37.956;23.722;2023-12-04T00:17:53;35.08;;;13.52;;
80211;SDS011;70434;37.956;23.722;2023-12-04T00:20:19;29.67;;;14.30;;
80211;SDS011;70434;37.956;23.722;2023-12-04T00:22:45;28.10;;;13.30;;
80211;SDS011;70434;37.956;23.722;2023-12-04T00:25:10;26.88;;;12.85;;
80211;SDS011;70434;37.956;23.722;2023-12-04T00:27:36;32.72;;;14.68;;
80211;SDS011;70434;37.956;23.722;2023-12-04T00:30:02;33.45;;;13.95;;
80211;SDS011;70434;37.956;23.722;2023-12-04T00:32:29;28.65;;;13.82;;
80211;SDS011;70434;37.956;23.722;2023-12-04T00:34:55;29.00;;;13.75;;
80211;SDS011;70434;37.956;23.722;2023-12-04T00:37:21;32.15;;;13.48;;
80211;SDS011;70434;37.956;23.722;2023-12-04T00:39:47;31.77;;;12.05;;
80211;SDS011;70434;37.956;23.722;2023-12-04T00:42:13;28.20;;;12.35;;
80211;SDS011;70434;37.956;23.722;2023-12-04T00:44:38;29.60;;;14.68;;
80211;SDS011;70434;37.956;23.722;2023-12-04T00:47:04;30.70;;;13.32;;
80211;SDS011;70434;37.956;23.722;2023-12-04T00:49:30;24.00;;;13.32;;
80211;SDS011;70434;37.956;23.722;2023-12-04T00:51:56;35.03;;;13.48;;
80211;SDS011;70434;37.956;23.722;2023-12-04T00:54:22;27.20;;;13.65;;
80211;SDS011;70434;37.956;23.722;2023-12-04T00:56:47;33.50;;;11.77;;
80211;SDS011;70434;37.956;23.722;2023-12-04T00:59:13;26.80;;;11.48;;
80211;SDS011;70434;37.956;23.722;2023-12-04T01:01:39;24.55;;;11.80;;
80211;SDS011;70434;37.956;23.722;2023-12-04T01:04:05;25.85;;;10.23;;
80211;SDS011;70434;37.956;23.722;2023-12-04T01:06:30;25.00;;;10.75;;
80211;SDS011;70434;37.956;23.722;2023-12-04T01:08:56;25.38;;;11.65;;
80211;SDS011;70434;37.956;23.722;2023-12-04T01:11:22;28.55;;;12.20;;
80211;SDS011;70434;37.956;23.722;2023-12-04T01:13:48;26.10;;;10.80;;
80211;SDS011;70434;37.956;23.722;2023-12-04T01:16:14;29.90;;;11.88;;
80211;SDS011;70434;37.956;23.722;2023-12-04T01:18:41;24.52;;;11.10;;
80211;SDS011;70434;37.956;23.722;2023-12-04T01:21:07;23.58;;;11.65;;
80211;SDS011;70434;37.956;23.722;2023-12-04T01:23:34;25.27;;;10.77;;
80211;SDS011;70434;37.956;23.722;2023-12-04T01:26:00;25.63;;;11.80;;
80211;SDS011;70434;37.956;23.722;2023-12-04T01:28:26;28.45;;;11.77;;
80211;SDS011;70434;37.956;23.722;2023-12-04T01:30:52;28.27;;;11.52;;
80211;SDS011;70434;37.956;23.722;2023-12-04T01:33:18;28.67;;;12.40;;
80211;SDS011;70434;37.956;23.722;2023-12-04T01:35:43;22.15;;;11.75;;
80211;SDS011;70434;37.956;23.722;2023-12-04T01:38:09;27.58;;;11.00;;
80211;SDS011;70434;37.956;23.722;2023-12-04T01:40:35;24.65;;;10.98;;
80211;SDS011;70434;37.956;23.722;2023-12-04T01:43:01;29.63;;;10.32;;
80211;SDS011;70434;37.956;23.722;2023-12-04T01:45:26;25.17;;;12.20;;
80211;SDS011;70434;37.956;23.722;2023-12-04T01:47:53;28.65;;;11.27;;
80211;SDS011;70434;37.956;23.722;2023-12-04T01:50:18;18.88;;;10.25;;
80211;SDS011;70434;37.956;23.722;2023-12-04T01:52:45;23.83;;;11.05;;
80211;SDS011;70434;37.956;23.722;2023-12-04T01:55:12;32.88;;;10.73;;
80211;SDS011;70434;37.956;23.722;2023-12-04T01:57:39;25.55;;;11.52;;
80211;SDS011;70434;37.956;23.722;2023-12-04T02:00:05;27.42;;;10.23;;
80211;SDS011;70434;37.956;23.722;2023-12-04T02:02:36;28.55;;;10.93;;
80211;SDS011;70434;37.956;23.722;2023-12-04T02:05:07;30.98;;;9.65;;
80211;SDS011;70434;37.956;23.722;2023-12-04T02:07:34;23.60;;;9.25;;
80211;SDS011;70434;37.956;23.722;2023-12-04T02:10:03;22.70;;;9.52;;
80211;SDS011;70434;37.956;23.722;2023-12-04T02:12:30;24.58;;;9.63;;
80211;SDS011;70434;37.956;23.722;2023-12-04T02:14:56;19.95;;;9.35;;
80211;SDS011;70434;37.956;23.722;2023-12-04T02:17:22;18.17;;;8.57;;
80211;SDS011;70434;37.956;23.722;2023-12-04T02:19:49;23.42;;;8.45;;
80211;SDS011;70434;37.956;23.722;2023-12-04T02:22:15;26.65;;;10.15;;
80211;SDS011;70434;37.956;23.722;2023-12-04T02:24:43;23.95;;;8.50;;
80211;SDS011;70434;37.956;23.722;2023-12-04T02:27:10;25.98;;;9.27;;
80211;SDS011;70434;37.956;23.722;2023-12-04T02:29:46;28.55;;;9.32;;
80211;SDS011;70434;37.956;23.722;2023-12-04T02:32:14;18.42;;;9.10;;
80211;SDS011;70434;37.956;23.722;2023-12-04T02:34:42;19.17;;;9.38;;
80211;SDS011;70434;37.956;23.722;2023-12-04T02:37:11;21.92;;;9.30;;
80211;SDS011;70434;37.956;23.722;2023-12-04T02:39:39;17.98;;;9.10;;
80211;SDS011;70434;37.956;23.722;2023-12-04T02:42:05;24.58;;;11.27;;
80211;SDS011;70434;37.956;23.722;2023-12-04T02:44:31;27.48;;;11.52;;
80211;SDS011;70434;37.956;23.722;2023-12-04T02:46:57;23.17;;;10.20;;
80211;SDS011;70434;37.956;23.722;2023-12-04T02:49:23;27.27;;;9.20;;
80211;SDS011;70434;37.956;23.722;2023-12-04T02:51:48;29.30;;;9.35;;
80211;SDS011;70434;37.956;23.722;2023-12-04T02:54:14;22.38;;;10.45;;
80211;SDS011;70434;37.956;23.722;2023-12-04T02:56:40;31.45;;;9.40;;
80211;SDS011;70434;37.956;23.722;2023-12-04T02:59:05;25.48;;;9.75;;
80211;SDS011;70434;37.956;23.722;2023-12-04T03:01:31;30.27;;;9.07;;
80211;SDS011;70434;37.956;23.722;2023-12-04T03:03:57;27.17;;;10.02;;
80211;SDS011;70434;37.956;23.722;2023-12-04T03:06:22;26.10;;;9.45;;
80211;SDS011;70434;37.956;23.722;2023-12-04T03:08:48;23.13;;;8.65;;
80211;SDS011;70434;37.956;23.722;2023-12-04T03:11:14;21.65;;;8.63;;
80211;SDS011;70434;37.956;23.722;2023-12-04T03:13:39;18.60;;;8.27;;
80211;SDS011;70434;37.956;23.722;2023-12-04T03:16:05;31.27;;;9.80;;
80211;SDS011;70434;37.956;23.722;2023-12-04T03:18:39;17.27;;;8.77;;
80211;SDS011;70434;37.956;23.722;2023-12-04T03:21:06;25.85;;;9.05;;
80211;SDS011;70434;37.956;23.722;2023-12-04T03:23:32;23.40;;;9.60;;
80211;SDS011;70434;37.956;23.722;2023-12-04T03:25:58;25.23;;;10.07;;
80211;SDS011;70434;37.956;23.722;2023-12-04T03:28:23;27.58;;;10.02;;
80211;SDS011;70434;37.956;23.722;2023-12-04T03:30:49;22.50;;;10.75;;
80211;SDS011;70434;37.956;23.722;2023-12-04T03:33:15;26.30;;;9.98;;
80211;SDS011;70434;37.956;23.722;2023-12-04T03:35:40;27.83;;;11.15;;
80211;SDS011;70434;37.956;23.722;2023-12-04T03:38:06;24.67;;;11.05;;
80211;SDS011;70434;37.956;23.722;2023-12-04T03:40:32;28.92;;;10.13;;
80211;SDS011;70434;37.956;23.722;2023-12-04T03:42:58;30.05;;;12.23;;
80211;SDS011;70434;37.956;23.722;2023-12-04T03:45:23;27.90;;;11.30;;
80211;SDS011;70434;37.956;23.722;2023-12-04T03:47:49;20.50;;;10.43;;
80211;SDS011;70434;37.956;23.722;2023-12-04T03:50:15;29.70;;;11.43;;
80211;SDS011;70434;37.956;23.722;2023-12-04T03:52:41;26.15;;;9.93;;
80211;SDS011;70434;37.956;23.722;2023-12-04T03:55:07;31.35;;;11.48;;
80211;SDS011;70434;37.956;23.722;2023-12-04T03:57:34;23.20;;;10.32;;
80211;SDS011;70434;37.956;23.722;2023-12-04T03:59:59;26.48;;;10.65;;
80211;SDS011;70434;37.956;23.722;2023-12-04T04:02:25;36.22;;;11.60;;
80211;SDS011;70434;37.956;23.722;2023-12-04T04:04:51;23.65;;;10.60;;
80211;SDS011;70434;37.956;23.722;2023-12-04T04:07:17;28.00;;;10.60;;
80211;SDS011;70434;37.956;23.722;2023-12-04T04:09:43;29.25;;;12.40;;
80211;SDS011;70434;37.956;23.722;2023-12-04T04:12:09;29.90;;;12.27;;
80211;SDS011;70434;37.956;23.722;2023-12-04T04:14:35;27.48;;;11.00;;
80211;SDS011;70434;37.956;23.722;2023-12-04T04:17:00;32.65;;;12.00;;
80211;SDS011;70434;37.956;23.722;2023-12-04T04:19:26;25.00;;;11.73;;
80211;SDS011;70434;37.956;23.722;2023-12-04T04:21:52;25.90;;;10.30;;
80211;SDS011;70434;37.956;23.722;2023-12-04T04:24:17;28.17;;;11.82;;
80211;SDS011;70434;37.956;23.722;2023-12-04T04:26:43;28.45;;;11.60;;
80211;SDS011;70434;37.956;23.722;2023-12-04T04:29:09;23.63;;;10.75;;
80211;SDS011;70434;37.956;23.722;2023-12-04T04:31:35;23.33;;;11.75;;
80211;SDS011;70434;37.956;23.722;2023-12-04T04:34:01;46.97;;;24.42;;
80211;SDS011;70434;37.956;23.722;2023-12-04T04:36:27;35.10;;;20.55;;
80211;SDS011;70434;37.956;23.722;2023-12-04T04:38:52;63.42;;;31.13;;
80211;SDS011;70434;37.956;23.722;2023-12-04T04:41:18;31.83;;;17.70;;
80211;SDS011;70434;37.956;23.722;2023-12-04T04:43:44;31.02;;;12.32;;
80211;SDS011;70434;37.956;23.722;2023-12-04T04:46:10;25.13;;;11.55;;
80211;SDS011;70434;37.956;23.722;2023-12-04T04:48:35;29.48;;;14.02;;
80211;SDS011;70434;37.956;23.722;2023-12-04T04:51:01;27.30;;;14.15;;
80211;SDS011;70434;37.956;23.722;2023-12-04T04:53:27;31.00;;;15.38;;
80211;SDS011;70434;37.956;23.722;2023-12-04T04:55:53;31.13;;;14.35;;
80211;SDS011;70434;37.956;23.722;2023-12-04T04:58:19;44.78;;;17.55;;
80211;SDS011;70434;37.956;23.722;2023-12-04T05:00:45;39.92;;;15.68;;
80211;SDS011;70434;37.956;23.722;2023-12-04T05:03:12;45.40;;;23.90;;
80211;SDS011;70434;37.956;23.722;2023-12-04T05:05:38;29.63;;;12.48;;
80211;SDS011;70434;37.956;23.722;2023-12-04T05:08:03;28.40;;;11.52;;
80211;SDS011;70434;37.956;23.722;2023-12-04T05:10:29;29.63;;;14.48;;
80211;SDS011;70434;37.956;23.722;2023-12-04T05:12:55;22.73;;;10.00;;
80211;SDS011;70434;37.956;23.722;2023-12-04T05:15:21;24.38;;;10.80;;
80211;SDS011;70434;37.956;23.722;2023-12-04T05:17:46;34.17;;;11.27;;
80211;SDS011;70434;37.956;23.722;2023-12-04T05:20:12;24.08;;;9.77;;
80211;SDS011;70434;37.956;23.722;2023-12-04T05:22:38;25.58;;;9.32;;
80211;SDS011;70434;37.956;23.722;2023-12-04T05:25:04;28.15;;;10.90;;
80211;SDS011;70434;37.956;23.722;2023-12-04T05:27:31;23.35;;;10.50;;
80211;SDS011;70434;37.956;23.722;2023-12-04T05:29:57;21.67;;;10.13;;
80211;SDS011;70434;37.956;23.722;2023-12-04T05:32:22;27.27;;;13.32;;
80211;SDS011;70434;37.956;23.722;2023-12-04T05:34:48;29.05;;;11.18;;
80211;SDS011;70434;37.956;23.722;2023-12-04T05:37:14;23.58;;;12.10;;
80211;SDS011;70434;37.956;23.722;2023-12-04T05:39:39;31.88;;;12.05;;
80211;SDS011;70434;37.956;23.722;2023-12-04T05:42:06;28.95;;;11.90;;
80211;SDS011;70434;37.956;23.722;2023-12-04T05:44:33;24.15;;;9.95;;
80211;SDS011;70434;37.956;23.722;2023-12-04T05:46:59;29.75;;;9.77;;
80211;SDS011;70434;37.956;23.722;2023-12-04T05:49:25;37.95;;;12.50;;
80211;SDS011;70434;37.956;23.722;2023-12-04T05:51:51;24.77;;;10.35;;
80211;SDS011;70434;37.956;23.722;2023-12-04T05:54:16;28.88;;;11.32;;
80211;SDS011;70434;37.956;23.722;2023-12-04T05:56:42;26.85;;;12.13;;
80211;SDS011;70434;37.956;23.722;2023-12-04T05:59:08;29.50;;;12.02;;
80211;SDS011;70434;37.956;23.722;2023-12-04T06:01:34;24.55;;;10.32;;
80211;SDS011;70434;37.956;23.722;2023-12-04T06:03:59;27.48;;;12.10;;
80211;SDS011;70434;37.956;23.722;2023-12-04T06:06:25;30.30;;;10.30;;
80211;SDS011;70434;37.956;23.722;2023-12-04T06:08:52;30.48;;;11.35;;
80211;SDS011;70434;37.956;23.722;2023-12-04T06:11:18;34.50;;;11.52;;
80211;SDS011;70434;37.956;23.722;2023-12-04T06:13:43;41.50;;;11.80;;
80211;SDS011;70434;37.956;23.722;2023-12-04T06:16:09;20.80;;;11.32;;
80211;SDS011;70434;37.956;23.722;2023-12-04T06:18:35;30.52;;;11.60;;
80211;SDS011;70434;37.956;23.722;2023-12-04T06:21:01;32.75;;;11.73;;
80211;SDS011;70434;37.956;23.722;2023-12-04T06:23:27;44.60;;;19.30;;
80211;SDS011;70434;37.956;23.722;2023-12-04T06:25:53;38.03;;;18.73;;
80211;SDS011;70434;37.956;23.722;2023-12-04T06:28:19;47.88;;;19.67;;
80211;SDS011;70434;37.956;23.722;2023-12-04T06:30:45;35.72;;;18.02;;
80211;SDS011;70434;37.956;23.722;2023-12-04T06:33:11;40.35;;;16.98;;
80211;SDS011;70434;37.956;23.722;2023-12-04T06:35:39;39.90;;;15.65;;
80211;SDS011;70434;37.956;23.722;2023-12-04T06:38:06;30.23;;;12.63;;
80211;SDS011;70434;37.956;23.722;2023-12-04T06:40:33;36.65;;;12.15;;
80211;SDS011;70434;37.956;23.722;2023-12-04T06:43:00;39.38;;;13.60;;
80211;SDS011;70434;37.956;23.722;2023-12-04T06:45:26;26.00;;;12.75;;
80211;SDS011;70434;37.956;23.722;2023-12-04T06:47:52;34.80;;;12.45;;
80211;SDS011;70434;37.956;23.722;2023-12-04T06:50:19;29.83;;;13.05;;
80211;SDS011;70434;37.956;23.722;2023-12-04T06:52:45;27.55;;;11.38;;
80211;SDS011;70434;37.956;23.722;2023-12-04T06:55:11;25.23;;;10.57;;
80211;SDS011;70434;37.956;23.722;2023-12-04T06:57:38;25.70;;;10.68;;
80211;SDS011;70434;37.956;23.722;2023-12-04T07:00:04;30.15;;;11.02;;
80211;SDS011;70434;37.956;23.722;2023-12-04T07:02:37;24.13;;;11.23;;
80211;SDS011;70434;37.956;23.722;2023-12-04T07:05:03;28.77;;;11.48;;
80211;SDS011;70434;37.956;23.722;2023-12-04T07:07:29;47.28;;;12.20;;
80211;SDS011;70434;37.956;23.722;2023-12-04T07:09:55;31.38;;;10.38;;
80211;SDS011;70434;37.956;23.722;2023-12-04T07:12:20;30.13;;;10.10;;
80211;SDS011;70434;37.956;23.722;2023-12-04T07:14:46;31.73;;;11.85;;
80211;SDS011;70434;37.956;23.722;2023-12-04T07:17:12;30.17;;;10.82;;
80211;SDS011;70434;37.956;23.722;2023-12-04T07:19:40;27.85;;;14.38;;
80211;SDS011;70434;37.956;23.722;2023-12-04T07:22:07;35.88;;;16.63;;
80211;SDS011;70434;37.956;23.722;2023-12-04T07:24:32;32.97;;;13.05;;
80211;SDS011;70434;37.956;23.722;2023-12-04T07:26:58;27.80;;;11.30;;
80211;SDS011;70434;37.956;23.722;2023-12-04T07:29:24;30.77;;;10.95;;
80211;SDS011;70434;37.956;23.722;2023-12-04T07:31:50;30.45;;;13.90;;
80211;SDS011;70434;37.956;23.722;2023-12-04T07:34:16;30.42;;;14.38;;
80211;SDS011;70434;37.956;23.722;2023-12-04T07:36:42;45.83;;;19.63;;
80211;SDS011;70434;37.956;23.722;2023-12-04T07:39:09;39.28;;;19.45;;
80211;SDS011;70434;37.956;23.722;2023-12-04T07:41:36;35.50;;;19.50;;
80211;SDS011;70434;37.956;23.722;2023-12-04T07:44:02;42.13;;;20.05;;
80211;SDS011;70434;37.956;23.722;2023-12-04T07:46:28;55.10;;;24.83;;
80211;SDS011;70434;37.956;23.722;2023-12-04T07:48:55;43.65;;;17.77;;
80211;SDS011;70434;37.956;23.722;2023-12-04T07:51:20;46.33;;;17.30;;
80211;SDS011;70434;37.956;23.722;2023-12-04T07:53:46;47.25;;;18.45;;
80211;SDS011;70434;37.956;23.722;2023-12-04T07:56:12;40.58;;;18.70;;
80211;SDS011;70434;37.956;23.722;2023-12-04T07:58:38;46.60;;;19.95;;
80211;SDS011;70434;37.956;23.722;2023-12-04T08:01:04;45.35;;;19.52;;
80211;SDS011;70434;37.956;23.722;2023-12-04T08:03:30;53.88;;;18.17;;
80211;SDS011;70434;37.956;23.722;2023-12-04T08:05:56;43.95;;;19.50;;
80211;SDS011;70434;37.956;23.722;2023-12-04T08:08:23;44.20;;;19.02;;
80211;SDS011;70434;37.956;23.722;2023-12-04T08:10:49;48.22;;;20.02;;
80211;SDS011;70434;37.956;23.722;2023-12-04T08:13:15;43.05;;;19.60;;
80211;SDS011;70434;37.956;23.722;2023-12-04T08:15:41;35.58;;;18.30;;
80211;SDS011;70434;37.956;23.722;2023-12-04T08:18:07;36.90;;;18.88;;
80211;SDS011;70434;37.956;23.722;2023-12-04T08:20:33;39.05;;;19.48;;
80211;SDS011;70434;37.956;23.722;2023-12-04T08:22:59;42.90;;;18.33;;
80211;SDS011;70434;37.956;23.722;2023-12-04T08:25:25;36.15;;;15.80;;
80211;SDS011;70434;37.956;23.722;2023-12-04T08:27:51;38.92;;;17.08;;
80211;SDS011;70434;37.956;23.722;2023-12-04T08:30:17;38.50;;;17.35;;
80211;SDS011;70434;37.956;23.722;2023-12-04T08:32:43;44.60;;;17.85;;
80211;SDS011;70434;37.956;23.722;2023-12-04T08:35:09;39.53;;;16.38;;
80211;SDS011;70434;37.956;23.722;2023-12-04T08:37:35;39.50;;;16.90;;
80211;SDS011;70434;37.956;23.722;2023-12-04T08:40:01;33.28;;;16.52;;
80211;SDS011;70434;37.956;23.722;2023-12-04T08:42:28;42.53;;;14.73;;
80211;SDS011;70434;37.956;23.722;2023-12-04T08:44:54;39.45;;;12.90;;
80211;SDS011;70434;37.956;23.722;2023-12-04T08:47:20;43.10;;;12.98;;
80211;SDS011;70434;37.956;23.722;2023-12-04T08:49:46;36.28;;;10.85;;
80211;SDS011;70434;37.956;23.722;2023-12-04T08:52:11;36.35;;;11.57;;
80211;SDS011;70434;37.956;23.722;2023-12-04T08:54:40;58.53;;;14.88;;
80211;SDS011;70434;37.956;23.722;2023-12-04T08:57:07;53.08;;;13.27;;
80211;SDS011;70434;37.956;23.722;2023-12-04T08:59:33;40.05;;;13.60;;
80211;SDS011;70434;37.956;23.722;2023-12-04T09:01:59;49.53;;;12.98;;
80211;SDS011;70434;37.956;23.722;2023-12-04T09:04:29;35.15;;;12.48;;
80211;SDS011;70434;37.956;23.722;2023-12-04T09:06:55;32.88;;;13.00;;
80211;SDS011;70434;37.956;23.722;2023-12-04T09:09:21;32.10;;;13.77;;
80211;SDS011;70434;37.956;23.722;2023-12-04T09:11:47;37.92;;;14.95;;
80211;SDS011;70434;37.956;23.722;2023-12-04T09:14:12;36.72;;;14.68;;
80211;SDS011;70434;37.956;23.722;2023-12-04T09:16:39;29.65;;;12.70;;
80211;SDS011;70434;37.956;23.722;2023-12-04T09:19:05;28.63;;;12.00;;
80211;SDS011;70434;37.956;23.722;2023-12-04T09:21:30;34.10;;;14.15;;
80211;SDS011;70434;37.956;23.722;2023-12-04T09:23:56;35.10;;;13.30;;
80211;SDS011;70434;37.956;23.722;2023-12-04T09:26:22;40.08;;;12.20;;
80211;SDS011;70434;37.956;23.722;2023-12-04T09:28:48;34.33;;;12.60;;
80211;SDS011;70434;37.956;23.722;2023-12-04T09:31:14;22.05;;;12.40;;
80211;SDS011;70434;37.956;23.722;2023-12-04T09:33:40;36.67;;;12.65;;
80211;SDS011;70434;37.956;23.722;2023-12-04T09:36:05;27.70;;;8.13;;
80211;SDS011;70434;37.956;23.722;2023-12-04T09:38:31;29.55;;;8.40;;
80211;SDS011;70434;37.956;23.722;2023-12-04T09:40:58;23.13;;;7.22;;
80211;SDS011;70434;37.956;23.722;2023-12-04T09:43:26;32.30;;;6.90;;
80211;SDS011;70434;37.956;23.722;2023-12-04T09:45:59;21.58;;;6.55;;
80211;SDS011;70434;37.956;23.722;2023-12-04T09:48:26;20.52;;;6.10;;
80211;SDS011;70434;37.956;23.722;2023-12-04T09:50:54;23.88;;;7.40;;
80211;SDS011;70434;37.956;23.722;2023-12-04T09:53:21;21.73;;;6.68;;
80211;SDS011;70434;37.956;23.722;2023-12-04T09:55:50;20.15;;;6.63;;
80211;SDS011;70434;37.956;23.722;2023-12-04T09:58:18;28.02;;;8.60;;
80211;SDS011;70434;37.956;23.722;2023-12-04T10:00:45;21.08;;;7.18;;
80211;SDS011;70434;37.956;23.722;2023-12-04T10:03:12;23.48;;;7.00;;
80211;SDS011;70434;37.956;23.722;2023-12-04T10:05:41;26.23;;;6.18;;
80211;SDS011;70434;37.956;23.722;2023-12-04T10:08:08;17.40;;;5.82;;
80211;SDS011;70434;37.956;23.722;2023-12-04T10:10:34;26.48;;;6.88;;
80211;SDS011;70434;37.956;23.722;2023-12-04T10:13:00;20.33;;;6.38;;
80211;SDS011;70434;37.956;23.722;2023-12-04T10:15:26;18.30;;;6.00;;
80211;SDS011;70434;37.956;23.722;2023-12-04T10:17:51;18.85;;;7.28;;
80211;SDS011;70434;37.956;23.722;2023-12-04T10:20:19;19.98;;;6.28;;
80211;SDS011;70434;37.956;23.722;2023-12-04T10:22:56;20.85;;;6.30;;
80211;SDS011;70434;37.956;23.722;2023-12-04T10:25:23;17.50;;;5.20;;
80211;SDS011;70434;37.956;23.722;2023-12-04T10:27:51;21.45;;;6.40;;
80211;SDS011;70434;37.956;23.722;2023-12-04T10:30:22;25.52;;;6.00;;
80211;SDS011;70434;37.956;23.722;2023-12-04T10:32:58;22.95;;;6.07;;
80211;SDS011;70434;37.956;23.722;2023-12-04T10:35:31;16.42;;;5.90;;
80211;SDS011;70434;37.956;23.722;2023-12-04T10:37:57;15.95;;;5.30;;
80211;SDS011;70434;37.956;23.722;2023-12-04T10:40:34;15.70;;;5.15;;
80211;SDS011;70434;37.956;23.722;2023-12-04T10:43:20;16.40;;;6.53;;
80211;SDS011;70434;37.956;23.722;2023-12-04T10:45:47;23.25;;;5.55;;
80211;SDS011;70434;37.956;23.722;2023-12-04T10:48:14;19.08;;;5.47;;
80211;SDS011;70434;37.956;23.722;2023-12-04T10:50:45;23.15;;;5.18;;
80211;SDS011;70434;37.956;23.722;2023-12-04T10:53:12;17.10;;;4.80;;
80211;SDS011;70434;37.956;23.722;2023-12-04T10:55:39;20.15;;;7.32;;
80211;SDS011;70434;37.956;23.722;2023-12-04T10:58:06;17.45;;;5.30;;
80211;SDS011;70434;37.956;23.722;2023-12-04T11:00:43;16.13;;;6.10;;
80211;SDS011;70434;37.956;23.722;2023-12-04T11:03:14;14.52;;;5.40;;
80211;SDS011;70434;37.956;23.722;2023-12-04T11:05:48;18.10;;;6.18;;
80211;SDS011;70434;37.956;23.722;2023-12-04T11:08:20;18.45;;;5.85;;
80211;SDS011;70434;37.956;23.722;2023-12-04T11:13:50;12.57;;;5.30;;
80211;SDS011;70434;37.956;23.722;2023-12-04T11:16:18;17.80;;;5.97;;
80211;SDS011;70434;37.956;23.722;2023-12-04T11:18:54;15.02;;;5.82;;
80211;SDS011;70434;37.956;23.722;2023-12-04T11:21:26;17.80;;;5.88;;
80211;SDS011;70434;37.956;23.722;2023-12-04T11:23:54;15.68;;;5.78;;
80211;SDS011;70434;37.956;23.722;2023-12-04T11:26:21;17.50;;;5.90;;
80211;SDS011;70434;37.956;23.722;2023-12-04T11:28:48;18.65;;;5.20;;
80211;SDS011;70434;37.956;23.722;2023-12-04T11:31:14;13.45;;;5.28;;
80211;SDS011;70434;37.956;23.722;2023-12-04T11:33:41;17.08;;;6.22;;
80211;SDS011;70434;37.956;23.722;2023-12-04T11:36:11;22.85;;;7.05;;
80211;SDS011;70434;37.956;23.722;2023-12-04T11:38:38;16.50;;;6.30;;
80211;SDS011;70434;37.956;23.722;2023-12-04T11:41:14;14.20;;;4.20;;
80211;SDS011;70434;37.956;23.722;2023-12-04T11:43:42;19.95;;;4.78;;
80211;SDS011;70434;37.956;23.722;2023-12-04T11:46:10;15.52;;;5.53;;
80211;SDS011;70434;37.956;23.722;2023-12-04T11:48:37;14.82;;;4.47;;
80211;SDS011;70434;37.956;23.722;2023-12-04T11:51:03;17.60;;;4.70;;
80211;SDS011;70434;37.956;23.722;2023-12-04T11:53:37;11.85;;;4.53;;
80211;SDS011;70434;37.956;23.722;2023-12-04T11:56:10;14.45;;;4.95;;
80211;SDS011;70434;37.956;23.722;2023-12-04T11:58:43;12.50;;;4.32;;
80211;SDS011;70434;37.956;23.722;2023-12-04T12:03:36;12.82;;;4.90;;
80211;SDS011;70434;37.956;23.722;2023-12-04T12:06:03;14.70;;;4.50;;
80211;SDS011;70434;37.956;23.722;2023-12-04T12:08:29;17.55;;;4.97;;
80211;SDS011;70434;37.956;23.722;2023-12-04T12:10:55;12.93;;;5.03;;
80211;SDS011;70434;37.956;23.722;2023-12-04T12:13:22;16.45;;;5.40;;
80211;SDS011;70434;37.956;23.722;2023-12-04T12:15:51;11.77;;;4.85;;
80211;SDS011;70434;37.956;23.722;2023-12-04T12:18:17;12.05;;;5.10;;
80211;SDS011;70434;37.956;23.722;2023-12-04T12:20:43;11.27;;;5.05;;
80211;SDS011;70434;37.956;23.722;2023-12-04T12:23:09;8.68;;;5.25;;
80211;SDS011;70434;37.956;23.722;2023-12-04T12:25:35;8.63;;;4.35;;
80211;SDS011;70434;37.956;23.722;2023-12-04T12:28:04;13.95;;;5.35;;
80211;SDS011;70434;37.956;23.722;2023-12-04T12:30:30;12.70;;;4.53;;
80211;SDS011;70434;37.956;23.722;2023-12-04T12:32:56;11.18;;;4.20;;
80211;SDS011;70434;37.956;23.722;2023-12-04T12:35:22;11.63;;;4.68;;
80211;SDS011;70434;37.956;23.722;2023-12-04T12:37:48;13.73;;;4.53;;
80211;SDS011;70434;37.956;23.722;2023-12-04T12:40:19;16.88;;;4.75;;
80211;SDS011;70434;37.956;23.722;2023-12-04T12:42:46;15.48;;;4.97;;
80211;SDS011;70434;37.956;23.722;2023-12-04T12:45:11;12.13;;;4.97;;
80211;SDS011;70434;37.956;23.722;2023-12-04T12:47:39;12.95;;;5.18;;
80211;SDS011;70434;37.956;23.722;2023-12-04T12:50:08;16.73;;;6.00;;
80211;SDS011;70434;37.956;23.722;2023-12-04T12:52:38;14.82;;;5.43;;
80211;SDS011;70434;37.956;23.722;2023-12-04T12:55:04;15.02;;;5.22;;
80211;SDS011;70434;37.956;23.722;2023-12-04T12:57:31;11.95;;;5.30;;
80211;SDS011;70434;37.956;23.722;2023-12-04T12:59:57;18.00;;;4.72;;
80211;SDS011;70434;37.956;23.722;2023-12-04T13:02:23;15.52;;;5.40;;
80211;SDS011;70434;37.956;23.722;2023-12-04T13:04:48;14.77;;;4.75;;
80211;SDS011;70434;37.956;23.722;2023-12-04T13:07:16;13.43;;;5.78;;
80211;SDS011;70434;37.956;23.722;2023-12-04T13:09:43;16.27;;;4.97;;
80211;SDS011;70434;37.956;23.722;2023-12-04T13:12:09;13.30;;;4.47;;
80211;SDS011;70434;37.956;23.722;2023-12-04T13:14:35;16.25;;;4.57;;
80211;SDS011;70434;37.956;23.722;2023-12-04T13:17:01;7.78;;;3.90;;
80211;SDS011;70434;37.956;23.722;2023-12-04T13:19:27;13.55;;;4.28;;
80211;SDS011;70434;37.956;23.722;2023-12-04T13:21:53;10.07;;;4.28;;
80211;SDS011;70434;37.956;23.722;2023-12-04T13:24:19;12.00;;;4.53;;
80211;SDS011;70434;37.956;23.722;2023-12-04T13:26:45;10.48;;;4.30;;
80211;SDS011;70434;37.956;23.722;2023-12-04T13:29:11;14.85;;;4.43;;
80211;SDS011;70434;37.956;23.722;2023-12-04T13:31:40;9.02;;;3.58;;
80211;SDS011;70434;37.956;23.722;2023-12-04T13:34:06;13.80;;;4.43;;
80211;SDS011;70434;37.956;23.722;2023-12-04T13:36:34;10.43;;;3.38;;
80211;SDS011;70434;37.956;23.722;2023-12-04T13:39:02;10.00;;;3.53;;
80211;SDS011;70434;37.956;23.722;2023-12-04T13:41:29;12.57;;;4.10;;
80211;SDS011;70434;37.956;23.722;2023-12-04T13:44:14;10.48;;;4.45;;
80211;SDS011;70434;37.956;23.722;2023-12-04T13:46:40;14.77;;;4.25;;
80211;SDS011;70434;37.956;23.722;2023-12-04T13:49:06;8.68;;;2.95;;
80211;SDS011;70434;37.956;23.722;2023-12-04T13:51:32;11.77;;;3.33;;
80211;SDS011;70434;37.956;23.722;2023-12-04T13:53:59;8.45;;;3.30;;
80211;SDS011;70434;37.956;23.722;2023-12-04T13:56:34;7.03;;;2.70;;
80211;SDS011;70434;37.956;23.722;2023-12-04T13:59:20;6.88;;;2.53;;
80211;SDS011;70434;37.956;23.722;2023-12-04T14:01:47;5.57;;;2.97;;
80211;SDS011;70434;37.956;23.722;2023-12-04T14:04:16;6.10;;;2.58;;
80211;SDS011;70434;37.956;23.722;2023-12-04T14:06:42;5.68;;;2.45;;
80211;SDS011;70434;37.956;23.722;2023-12-04T14:09:08;9.27;;;2.83;;
80211;SDS011;70434;37.956;23.722;2023-12-04T14:11:39;5.88;;;2.78;;
80211;SDS011;70434;37.956;23.722;2023-12-04T14:14:07;9.20;;;2.72;;
80211;SDS011;70434;37.956;23.722;2023-12-04T14:16:32;4.47;;;2.13;;